Time;durP1;ratioP1;P1;durP2;ratioP2;P2;SDS_P1;SDS_P2;PMS_P1;PMS_P2;Temp;Humidity;BMP_temperature;BMP_pressure;BME280_temperature;BME280_humidity;BME280_pressure;Samples;Min_cycle;Max_cycle;Signal;HPM_P1;HPM_P2
2023/06/07 00:00:26;;;;;;;12.13;7.55;;;;;;;12.73;96.27;101981.72;1043494;28;20310;-48
2023/06/07 00:01:08;;;;;;;13.18;7.05;;;;;;;12.72;96.30;101977.41;1043854;28;20300;-44
2023/06/07 00:01:42;;;;;;;9.07;7.15;;;;;;;12.66;96.28;101982.53;1043680;28;20365;-47
2023/06/07 00:02:14;;;;;;;10.02;6.45;;;;;;;12.71;95.94;101978.44;1043223;28;20716;-50
2023/06/07 00:03:09;;;;;;;12.35;7.60;;;;;;;12.63;96.10;101979.44;1044380;28;20302;-45
2023/06/07 00:03:44;;;;;;;11.52;6.88;;;;;;;12.62;95.63;101978.63;1040061;28;20296;-49
2023/06/07 00:04:17;;;;;;;19.38;8.55;;;;;;;12.62;96.20;101980.47;1044414;28;20291;-50
2023/06/07 00:04:49;;;;;;;22.85;8.52;;;;;;;12.63;96.79;101968.75;1044098;28;20836;-45
2023/06/07 00:05:21;;;;;;;11.63;7.40;;;;;;;12.59;96.25;101984.34;1041734;28;20852;-48
2023/06/07 00:05:53;;;;;;;10.70;6.63;;;;;;;12.59;96.91;101975.50;1044015;28;20303;-48
2023/06/07 00:06:25;;;;;;;19.52;7.60;;;;;;;12.64;96.57;101975.75;1043822;28;20376;-45
2023/06/07 00:07:00;;;;;;;17.95;7.65;;;;;;;12.59;96.74;101980.84;1044018;28;20295;-48
2023/06/07 00:07:35;;;;;;;15.48;7.40;;;;;;;12.56;96.69;101976.72;1044475;28;20315;-49
2023/06/07 00:08:07;;;;;;;12.20;6.80;;;;;;;12.61;96.23;101984.16;1044819;28;20797;-46
2023/06/07 00:08:39;;;;;;;13.18;8.13;;;;;;;12.63;96.65;101977.59;1044933;28;20303;-52
2023/06/07 00:09:11;;;;;;;13.02;7.65;;;;;;;12.65;96.68;101983.56;1045394;28;20382;-50
2023/06/07 00:09:43;;;;;;;13.23;6.65;;;;;;;12.64;96.05;101979.25;1044820;28;20295;-49
2023/06/07 00:10:14;;;;;;;14.30;7.60;;;;;;;12.71;95.79;101984.59;1045175;28;20290;-45
2023/06/07 00:10:46;;;;;;;13.63;6.93;;;;;;;12.66;96.25;101977.19;1045483;28;20295;-50
2023/06/07 00:11:20;;;;;;;14.50;7.20;;;;;;;12.62;96.22;101981.28;1044488;28;20306;-46
2023/06/07 00:11:55;;;;;;;12.95;7.57;;;;;;;12.68;95.96;101983.16;1044230;28;20432;-47
2023/06/07 00:12:26;;;;;;;11.23;6.40;;;;;;;12.69;96.55;101983.97;1044488;28;20294;-47
2023/06/07 00:12:58;;;;;;;11.30;6.40;;;;;;;12.69;95.95;101976.78;1044326;28;20353;-51
2023/06/07 00:13:30;;;;;;;15.20;6.57;;;;;;;12.67;96.34;101983.34;1044572;28;20766;-45
2023/06/07 00:14:03;;;;;;;11.43;6.47;;;;;;;12.63;96.20;101988.28;1044738;28;20333;-51
2023/06/07 00:14:35;;;;;;;12.50;7.97;;;;;;;12.65;95.90;101980.88;1044221;28;20422;-50
2023/06/07 00:15:07;;;;;;;15.13;7.88;;;;;;;12.71;96.16;101981.09;1044272;28;20372;-48
2023/06/07 00:15:39;;;;;;;13.23;6.32;;;;;;;12.73;95.58;101982.53;1044506;28;20291;-47
2023/06/07 00:16:12;;;;;;;10.00;6.60;;;;;;;12.76;96.26;101981.31;1041718;28;20819;-51
2023/06/07 00:16:44;;;;;;;9.38;6.07;;;;;;;12.73;96.08;101981.72;1044263;28;20366;-47
2023/06/07 00:17:16;;;;;;;10.55;6.95;;;;;;;12.73;96.08;101977.19;1039962;28;20300;-49
2023/06/07 00:17:48;;;;;;;13.43;8.35;;;;;;;12.74;95.87;101978.84;1039964;28;20375;-48
2023/06/07 00:18:20;;;;;;;10.82;6.85;;;;;;;12.71;95.31;101973.06;1039300;28;20308;-48
2023/06/07 00:18:52;;;;;;;13.63;6.60;;;;;;;12.69;96.01;101976.78;1040387;28;20335;-51
2023/06/07 00:19:27;;;;;;;13.63;7.13;;;;;;;12.76;96.03;101981.31;1044769;28;20681;-56
2023/06/07 00:20:00;;;;;;;13.25;7.30;;;;;;;12.76;95.86;101981.31;1041006;28;20296;-47
2023/06/07 00:20:32;;;;;;;11.77;6.57;;;;;;;12.76;95.92;101979.47;1041519;28;20296;-48
2023/06/07 00:21:04;;;;;;;14.27;7.28;;;;;;;12.74;95.79;101978.00;1044402;28;20645;-48
2023/06/07 00:21:36;;;;;;;16.02;7.43;;;;;;;12.73;95.74;101979.03;1044470;28;20299;-48
2023/06/07 00:22:08;;;;;;;10.90;6.93;;;;;;;12.73;95.71;101979.03;1044680;28;20287;-48
2023/06/07 00:22:40;;;;;;;18.63;7.07;;;;;;;12.77;95.51;101977.59;1044698;28;20297;-49
2023/06/07 00:23:15;;;;;;;15.90;8.25;;;;;;;12.74;95.50;101978.00;1044679;28;20899;-46
2023/06/07 00:23:47;;;;;;;14.68;7.10;;;;;;;12.79;96.07;101980.91;1045538;28;20295;-52
2023/06/07 00:24:19;;;;;;;11.88;8.48;;;;;;;12.73;96.36;101976.38;1044378;28;20311;-57
2023/06/07 00:24:51;;;;;;;16.00;7.25;;;;;;;12.69;96.47;101981.31;1044095;28;20312;-56
2023/06/07 00:25:24;;;;;;;14.55;6.95;;;;;;;12.71;95.91;101976.56;1044612;28;20299;-57
2023/06/07 00:25:56;;;;;;;15.27;7.32;;;;;;;12.73;96.29;101976.38;1044481;28;20399;-57
2023/06/07 00:26:28;;;;;;;12.45;6.75;;;;;;;12.73;96.01;101971.03;1044038;28;20299;-55
2023/06/07 00:27:00;;;;;;;14.85;7.88;;;;;;;12.72;96.38;101975.53;1043933;28;20311;-56
2023/06/07 00:27:31;;;;;;;15.02;8.35;;;;;;;12.69;96.30;101976.78;1044258;28;20355;-57
2023/06/07 00:28:03;;;;;;;9.68;6.95;;;;;;;12.67;96.30;101980.69;1043645;28;20318;-56
2023/06/07 00:28:35;;;;;;;13.13;6.65;;;;;;;12.67;95.95;101976.16;1043961;28;20299;-57
2023/06/07 00:29:07;;;;;;;14.27;7.90;;;;;;;12.67;96.30;101973.47;1040066;28;20311;-57
2023/06/07 00:29:38;;;;;;;9.65;7.05;;;;;;;12.59;95.78;101976.31;1040113;28;20391;-58
2023/06/07 00:30:11;;;;;;;10.10;6.53;;;;;;;12.53;96.39;101974.47;1043970;28;20380;-56
2023/06/07 00:30:43;;;;;;;10.00;7.55;;;;;;;12.49;96.83;101978.56;1044275;28;20283;-56
2023/06/07 00:31:14;;;;;;;13.13;7.68;;;;;;;12.47;96.72;101972.59;1044334;28;20295;-56
2023/06/07 00:31:46;;;;;;;14.98;7.38;;;;;;;12.46;97.03;101976.28;1044167;28;20299;-57
2023/06/07 00:32:19;;;;;;;13.00;7.47;;;;;;;12.43;97.13;101981.22;1044281;28;20307;-47
2023/06/07 00:32:51;;;;;;;11.23;7.55;;;;;;;12.46;97.62;101976.28;1044781;28;20911;-56
2023/06/07 00:33:22;;;;;;;10.98;7.15;;;;;;;12.41;97.63;101978.75;1040582;28;20308;-53
2023/06/07 00:33:54;;;;;;;10.98;7.65;;;;;;;12.44;97.53;101978.34;1040238;28;20300;-57
2023/06/07 00:34:26;;;;;;;17.02;8.43;;;;;;;12.46;97.43;101978.97;1040278;28;20296;-57
2023/06/07 00:34:57;;;;;;;13.73;7.75;;;;;;;12.41;97.55;101978.75;1040398;28;20300;-57
2023/06/07 00:35:29;;;;;;;14.93;7.35;;;;;;;12.33;97.94;101982.44;1044923;28;20295;-56
2023/06/07 00:36:01;;;;;;;21.60;7.78;;;;;;;12.30;98.84;101976.63;1043017;28;20298;-48
2023/06/07 00:36:40;;;;;;;14.68;7.43;;;;;;;12.26;98.10;101972.72;1044859;28;20296;-46
2023/06/07 00:37:12;;;;;;;10.48;6.68;;;;;;;12.29;98.87;101975.81;1044278;28;20307;-48
2023/06/07 00:37:44;;;;;;;10.25;7.65;;;;;;;12.29;99.01;101969.66;1044049;28;20808;-48
2023/06/07 00:38:17;;;;;;;15.32;7.65;;;;;;;12.27;99.12;101971.69;1041138;28;20336;-49
2023/06/07 00:38:50;;;;;;;14.00;7.50;;;;;;;12.24;99.36;101977.44;1040514;28;20302;-56
2023/06/07 00:39:24;;;;;;;14.98;6.78;;;;;;;12.26;99.43;101981.56;1044128;28;20310;-48
2023/06/07 00:39:56;;;;;;;9.52;7.40;;;;;;;12.27;99.35;101977.88;1044425;28;20399;-56
2023/06/07 00:40:27;;;;;;;12.45;7.35;;;;;;;12.27;99.27;101974.38;1044778;28;20680;-57
2023/06/07 00:40:59;;;;;;;10.73;7.70;;;;;;;12.26;99.11;101975.41;1044694;28;20808;-56
2023/06/07 00:41:31;;;;;;;14.88;7.35;;;;;;;12.34;99.53;101977.91;1044458;28;20303;-56
2023/06/07 00:42:04;;;;;;;11.20;6.45;;;;;;;12.26;99.88;101976.22;1044709;28;20773;-55
2023/06/07 00:42:35;;;;;;;12.43;7.15;;;;;;;12.25;99.66;101973.75;1043556;28;20355;-56
2023/06/07 00:43:07;;;;;;;25.10;7.03;;;;;;;12.22;99.19;101977.63;1044299;28;20318;-57
2023/06/07 00:43:38;;;;;;;12.23;7.28;;;;;;;12.25;99.14;101979.09;1044575;28;20394;-56
2023/06/07 00:44:12;;;;;;;10.43;6.72;;;;;;;12.28;99.30;101976.84;1044445;28;20295;-56
2023/06/07 00:44:43;;;;;;;18.25;8.23;;;;;;;12.23;99.73;101978.47;1044601;28;20678;-56
2023/06/07 00:45:15;;;;;;;16.92;8.60;;;;;;;12.22;99.62;101974.97;1044577;28;20292;-56
2023/06/07 00:45:47;;;;;;;13.18;6.85;;;;;;;12.21;99.68;101976.00;1044445;28;20299;-57
2023/06/07 00:46:20;;;;;;;13.32;7.05;;;;;;;12.21;99.66;101977.84;1044090;28;20291;-56
2023/06/07 00:46:51;;;;;;;11.07;7.32;;;;;;;12.19;100.00;101971.88;1044174;28;20306;-56
2023/06/07 00:47:25;;;;;;;11.63;8.85;;;;;;;12.15;100.00;101975.97;1043973;28;20295;-56
2023/06/07 00:47:56;;;;;;;16.33;7.32;;;;;;;12.21;100.00;101969.81;1043953;28;20322;-56
2023/06/07 00:48:28;;;;;;;16.63;7.53;;;;;;;12.21;100.00;101975.16;1035720;28;20297;-56
2023/06/07 00:49:01;;;;;;;15.27;7.78;;;;;;;12.13;100.00;101975.34;1032447;28;20316;-56
2023/06/07 00:49:32;;;;;;;11.70;7.00;;;;;;;12.10;100.00;101976.56;1033530;28;20293;-57
2023/06/07 00:50:05;;;;;;;18.52;9.05;;;;;;;12.09;100.00;101977.59;1037198;28;20307;-56
2023/06/07 00:50:37;;;;;;;11.05;6.50;;;;;;;12.10;100.00;101975.75;1043948;28;20662;-56
2023/06/07 00:51:09;;;;;;;10.88;7.30;;;;;;;12.11;100.00;101970.22;1043939;28;20314;-56
2023/06/07 00:51:41;;;;;;;11.77;7.68;;;;;;;12.15;100.00;101978.66;1043921;28;20323;-56
2023/06/07 00:52:13;;;;;;;13.52;7.20;;;;;;;12.15;100.00;101974.13;1039904;28;20304;-56
2023/06/07 00:52:44;;;;;;;14.85;7.63;;;;;;;12.17;100.00;101977.41;1037197;28;20306;-48
2023/06/07 00:53:16;;;;;;;9.32;6.95;;;;;;;12.19;100.00;101971.88;1035894;28;20496;-49
2023/06/07 00:53:49;;;;;;;14.48;7.18;;;;;;;12.15;100.00;101975.97;1033105;28;20644;-47
2023/06/07 00:54:21;;;;;;;10.05;7.35;;;;;;;12.17;100.00;101965.91;1033041;28;20328;-49
2023/06/07 00:54:53;;;;;;;17.45;7.45;;;;;;;12.17;99.89;101972.06;1032875;28;20690;-46
2023/06/07 00:55:26;;;;;;;15.48;8.70;;;;;;;12.21;100.00;101967.16;1033380;28;20301;-46
2023/06/07 00:55:58;;;;;;;12.77;5.97;;;;;;;12.17;99.94;101972.06;1035368;28;20304;-47
2023/06/07 00:56:30;;;;;;;11.95;6.72;;;;;;;12.17;99.98;101971.25;1033093;28;20310;-50
2023/06/07 00:57:02;;;;;;;15.75;8.10;;;;;;;12.09;100.00;101974.94;1040210;28;20291;-48
2023/06/07 00:57:35;;;;;;;12.00;7.05;;;;;;;12.10;100.00;101968.56;1043731;28;20405;-47
2023/06/07 00:58:09;;;;;;;17.05;8.05;;;;;;;12.17;100.00;101968.59;1043908;28;20808;-48
2023/06/07 00:58:45;;;;;;;12.25;7.43;;;;;;;12.19;100.00;101961.19;1036635;28;20344;-53
2023/06/07 00:59:18;;;;;;;13.82;7.88;;;;;;;12.17;100.00;101964.06;1032231;28;20305;-56
2023/06/07 00:59:50;;;;;;;8.43;6.20;;;;;;;12.23;99.68;101973.13;1033093;28;20293;-57
2023/06/07 01:00:22;;;;;;;13.20;7.28;;;;;;;12.28;100.00;101958.13;1034392;28;20349;-56
2023/06/07 01:00:58;;;;;;;10.70;7.22;;;;;;;12.18;100.00;101967.56;1041366;28;20299;-56
2023/06/07 01:01:29;;;;;;;18.20;6.80;;;;;;;12.19;100.00;101967.34;1039896;28;20706;-55
2023/06/07 01:02:01;;;;;;;16.85;7.22;;;;;;;12.18;99.90;101964.88;1041388;28;20300;-44
2023/06/07 01:02:33;;;;;;;15.35;8.52;;;;;;;12.10;99.67;101971.22;1040674;28;20301;-56
2023/06/07 01:03:05;;;;;;;10.70;7.03;;;;;;;12.13;100.00;101959.31;1040159;28;20445;-56
2023/06/07 01:03:37;;;;;;;14.23;7.30;;;;;;;12.15;99.99;101973.31;1039540;28;20797;-56
2023/06/07 01:04:09;;;;;;;10.52;7.55;;;;;;;12.10;100.00;101967.75;1040747;28;20650;-56
2023/06/07 01:04:42;;;;;;;17.85;8.63;;;;;;;12.06;100.00;101962.78;1038438;28;20408;-57
2023/06/07 01:05:14;;;;;;;12.23;7.05;;;;;;;12.04;100.00;101967.47;1040084;28;20296;-55
2023/06/07 01:05:47;;;;;;;13.20;7.72;;;;;;;12.07;100.00;101963.63;1043855;28;20299;-56
2023/06/07 01:06:21;;;;;;;13.55;7.55;;;;;;;12.04;100.00;101964.81;1040852;28;20292;-56
2023/06/07 01:06:53;;;;;;;11.20;7.90;;;;;;;12.05;100.00;101963.81;1041263;28;20378;-56
2023/06/07 01:07:25;;;;;;;14.25;7.55;;;;;;;12.09;100.00;101955.41;1044135;28;20792;-56
2023/06/07 01:07:57;;;;;;;12.35;7.38;;;;;;;12.05;100.00;101961.16;1041023;28;20304;-56
2023/06/07 01:08:30;;;;;;;13.68;7.13;;;;;;;11.97;100.00;101958.63;1045685;28;20642;-52
2023/06/07 01:09:06;;;;;;;12.32;7.65;;;;;;;11.95;100.00;101967.84;1048625;28;20302;-56
2023/06/07 01:09:37;;;;;;;17.48;7.70;;;;;;;11.98;100.00;101962.94;1048022;28;20352;-56
2023/06/07 01:10:09;;;;;;;10.77;6.97;;;;;;;12.02;100.00;101968.69;1043927;28;20310;-57
2023/06/07 01:10:41;;;;;;;11.00;7.38;;;;;;;11.99;100.00;101964.59;1036055;28;20304;-57
2023/06/07 01:11:13;;;;;;;16.17;7.80;;;;;;;11.92;100.00;101958.41;1032372;28;20313;-49
2023/06/07 01:11:53;;;;;;;17.17;7.32;;;;;;;11.82;100.00;101965.94;1031747;28;20838;-56
2023/06/07 01:12:26;;;;;;;13.65;7.38;;;;;;;11.87;100.00;101955.50;1037135;28;20750;-50
2023/06/07 01:12:58;;;;;;;20.58;7.70;;;;;;;11.91;100.00;101963.94;1044952;28;20342;-56
2023/06/07 01:13:31;;;;;;;14.75;7.18;;;;;;;11.91;100.00;101953.25;1043671;28;20772;-56
2023/06/07 01:14:03;;;;;;;15.60;7.53;;;;;;;11.91;100.00;101962.09;1038969;28;20315;-56
2023/06/07 01:14:35;;;;;;;11.82;6.47;;;;;;;11.82;100.00;101959.78;1035399;28;20319;-56
2023/06/07 01:15:07;;;;;;;14.70;8.35;;;;;;;11.80;100.00;101960.00;1035570;28;20308;-56
2023/06/07 01:15:39;;;;;;;20.83;9.30;;;;;;;11.76;100.00;101962.16;1028695;28;20699;-56
2023/06/07 01:16:11;;;;;;;19.38;8.20;;;;;;;11.83;100.00;101964.94;1035826;28;20307;-56
2023/06/07 01:16:43;;;;;;;16.52;8.50;;;;;;;11.85;100.00;101962.88;1036099;28;20292;-56
2023/06/07 01:17:17;;;;;;;11.50;7.88;;;;;;;11.88;100.00;101961.66;1035828;28;20316;-56
2023/06/07 01:17:49;;;;;;;16.65;8.90;;;;;;;11.84;100.00;101963.91;1037841;28;20300;-56
2023/06/07 01:18:25;;;;;;;13.10;7.68;;;;;;;11.84;100.00;101965.75;1032132;28;20703;-48
2023/06/07 01:18:57;;;;;;;11.52;6.80;;;;;;;11.77;100.00;101966.47;1035458;28;20304;-48
2023/06/07 01:19:30;;;;;;;14.40;8.07;;;;;;;11.80;100.00;101960.00;1039449;28;20358;-47
2023/06/07 01:20:04;;;;;;;18.90;7.15;;;;;;;11.78;100.00;101956.69;1040841;28;20300;-49
2023/06/07 01:20:38;;;;;;;12.23;7.55;;;;;;;11.77;100.00;101966.47;1043695;28;20310;-48
2023/06/07 01:21:13;;;;;;;15.00;7.80;;;;;;;11.78;100.00;101972.72;1039583;28;20300;-48
2023/06/07 01:21:45;;;;;;;9.35;7.00;;;;;;;11.77;100.00;101960.31;1041541;28;20314;-48
2023/06/07 01:22:25;;;;;;;14.80;7.20;;;;;;;11.76;100.00;101958.69;1039327;28;20308;-48
2023/06/07 01:22:58;;;;;;;15.90;7.70;;;;;;;11.73;100.00;101959.06;1037893;28;20303;-46
2023/06/07 01:23:31;;;;;;;15.93;6.60;;;;;;;11.79;100.00;101958.34;1035869;28;20339;-48
2023/06/07 01:24:04;;;;;;;15.32;7.05;;;;;;;11.81;100.00;101955.47;1040344;28;20303;-48
2023/06/07 01:24:39;;;;;;;14.15;7.55;;;;;;;11.85;100.00;101957.53;1046075;28;20298;-56
2023/06/07 01:25:11;;;;;;;10.30;7.82;;;;;;;11.82;100.00;101957.94;1045650;28;20314;-48
2023/06/07 01:25:43;;;;;;;12.60;7.45;;;;;;;11.87;100.00;101950.16;1044146;28;20283;-50
2023/06/07 01:26:14;;;;;;;13.57;7.88;;;;;;;11.87;100.00;101960.84;1043987;28;20364;-48
2023/06/07 01:26:52;;;;;;;11.50;7.50;;;;;;;11.89;100.00;101956.13;1040300;28;20288;-49
2023/06/07 01:27:30;;;;;;;11.75;6.75;;;;;;;11.77;100.00;101955.81;1038239;28;20312;-56
2023/06/07 01:28:02;;;;;;;15.75;7.38;;;;;;;11.76;100.00;101958.69;1029237;28;20289;-56
2023/06/07 01:28:34;;;;;;;12.15;7.03;;;;;;;11.74;100.00;101960.72;1029243;28;20321;-56
2023/06/07 01:29:06;;;;;;;22.45;8.02;;;;;;;11.74;100.00;101960.72;1034126;28;20301;-56
2023/06/07 01:29:39;;;;;;;15.25;7.93;;;;;;;11.74;100.00;101960.72;1041205;28;20292;-56
2023/06/07 01:30:12;;;;;;;10.60;7.32;;;;;;;11.68;100.00;101961.50;1043849;28;20350;-56
2023/06/07 01:30:45;;;;;;;13.18;6.88;;;;;;;11.59;100.00;101952.00;1044076;28;20302;-55
2023/06/07 01:31:17;;;;;;;17.05;7.75;;;;;;;11.55;100.00;101956.09;1043650;28;20657;-57
2023/06/07 01:31:49;;;;;;;10.18;7.15;;;;;;;11.61;100.00;101949.97;1039739;28;20385;-56
2023/06/07 01:32:25;;;;;;;12.68;6.25;;;;;;;11.62;100.00;101951.63;1039613;28;20369;-57
2023/06/07 01:32:58;;;;;;;13.65;7.40;;;;;;;11.57;100.00;101960.22;1040721;28;20300;-57
2023/06/07 01:33:32;;;;;;;11.77;8.13;;;;;;;11.56;100.00;101952.41;1035797;28;20371;-55
2023/06/07 01:34:06;;;;;;;12.23;7.18;;;;;;;11.60;100.00;101957.16;1029791;28;20337;-55
2023/06/07 01:34:39;;;;;;;12.68;7.63;;;;;;;11.60;100.00;101959.81;1024485;29;20330;-48
2023/06/07 01:35:11;;;;;;;10.52;7.57;;;;;;;11.57;100.00;101954.06;1024582;28;20302;-47
2023/06/07 01:35:44;;;;;;;15.32;7.75;;;;;;;11.60;100.00;101957.16;1033457;28;20779;-47
2023/06/07 01:36:17;;;;;;;13.20;7.22;;;;;;;11.55;100.00;101959.59;1033405;28;20297;-50
2023/06/07 01:36:49;;;;;;;16.25;7.75;;;;;;;11.57;100.00;101954.06;1032390;28;20301;-45
2023/06/07 01:37:21;;;;;;;16.38;7.63;;;;;;;11.56;100.00;101955.06;1034386;28;20300;-48
2023/06/07 01:37:53;;;;;;;15.40;9.18;;;;;;;11.62;100.00;101956.97;1033190;28;20332;-49
2023/06/07 01:38:26;;;;;;;18.02;8.52;;;;;;;11.61;100.00;101957.97;1033961;28;20289;-49
2023/06/07 01:39:00;;;;;;;14.35;7.32;;;;;;;11.60;100.00;101953.66;1039576;28;20303;-46
2023/06/07 01:39:32;;;;;;;14.65;7.82;;;;;;;11.67;100.00;101955.34;1039609;28;20308;-45
2023/06/07 01:40:05;;;;;;;12.38;7.43;;;;;;;11.69;100.00;101952.47;1036872;28;20297;-47
2023/06/07 01:40:38;;;;;;;11.40;7.55;;;;;;;11.71;100.00;101951.25;1032217;28;20308;-51
2023/06/07 01:41:11;;;;;;;15.73;7.35;;;;;;;11.63;100.00;101955.94;1031211;28;20301;-50
2023/06/07 01:41:43;;;;;;;11.98;7.07;;;;;;;11.61;100.00;101949.97;1032917;28;20380;-50
2023/06/07 01:42:16;;;;;;;11.48;7.15;;;;;;;11.57;100.00;101954.88;1030197;28;20309;-50
2023/06/07 01:42:48;;;;;;;11.65;7.07;;;;;;;11.53;100.00;101958.13;1035973;28;20362;-48
2023/06/07 01:43:21;;;;;;;10.43;6.95;;;;;;;11.48;100.00;101956.03;1033716;28;20312;-47
2023/06/07 01:43:53;;;;;;;20.60;8.90;;;;;;;11.45;100.00;101951.91;1030267;28;20309;-49
2023/06/07 01:44:25;;;;;;;14.75;7.60;;;;;;;11.44;100.00;101958.25;1032348;28;20301;-47
2023/06/07 01:44:58;;;;;;;19.70;8.55;;;;;;;11.49;100.00;101962.19;1039790;28;20303;-48
2023/06/07 01:45:31;;;;;;;14.68;7.25;;;;;;;11.49;100.00;101947.00;1036476;28;20307;-43
2023/06/07 01:46:03;;;;;;;13.40;7.07;;;;;;;11.46;100.00;101958.91;1036454;28;20297;-48
2023/06/07 01:46:35;;;;;;;16.40;7.75;;;;;;;11.41;100.00;101956.00;1043057;28;20299;-47
2023/06/07 01:47:08;;;;;;;16.88;8.30;;;;;;;11.49;100.00;101952.34;1040428;28;20288;-46
2023/06/07 01:47:40;;;;;;;12.38;7.13;;;;;;;11.45;100.00;101957.25;1040604;28;20354;-49
2023/06/07 01:48:12;;;;;;;10.15;7.40;;;;;;;11.44;100.00;101955.59;1043957;28;20307;-49
2023/06/07 01:48:45;;;;;;;12.55;7.45;;;;;;;11.46;100.00;101953.56;1035473;28;20814;-48
2023/06/07 01:49:19;;;;;;;16.13;7.68;;;;;;;11.40;100.00;101951.69;1033696;28;20356;-46
2023/06/07 01:49:51;;;;;;;18.95;7.40;;;;;;;11.41;100.00;101960.50;1035695;28;20864;-46
2023/06/07 01:50:23;;;;;;;13.55;7.18;;;;;;;11.44;100.00;101954.78;1036385;28;20304;-56
2023/06/07 01:50:54;;;;;;;16.83;7.22;;;;;;;11.44;100.00;101958.25;1045298;28;20307;-47
2023/06/07 01:51:27;;;;;;;12.40;7.13;;;;;;;11.39;100.00;101952.69;1048241;28;20719;-44
2023/06/07 01:51:58;;;;;;;8.48;6.60;;;;;;;11.37;100.00;101952.06;1048273;28;20318;-46
2023/06/07 01:52:38;;;;;;;12.80;7.05;;;;;;;11.48;100.00;101961.38;1051695;28;20377;-55
2023/06/07 01:53:10;;;;;;;15.60;8.27;;;;;;;11.53;100.00;101958.97;1049239;28;20304;-50
2023/06/07 01:53:42;;;;;;;16.23;7.13;;;;;;;11.53;100.00;101950.13;1048271;28;20313;-47
2023/06/07 01:54:15;;;;;;;11.85;6.88;;;;;;;11.56;100.00;101958.56;1048544;28;20290;-47
2023/06/07 01:54:47;;;;;;;13.77;7.10;;;;;;;11.53;100.00;101958.13;1048450;28;20330;-48
2023/06/07 01:55:19;;;;;;;13.57;7.60;;;;;;;11.49;100.00;101954.19;1047940;28;20286;-49
2023/06/07 01:55:59;;;;;;;13.15;7.72;;;;;;;11.47;100.00;101954.38;1044141;28;20299;-46
2023/06/07 01:56:42;;;;;;;15.45;7.68;;;;;;;11.44;100.00;101955.59;1028880;28;20657;-45
2023/06/07 01:57:26;;;;;;;15.80;7.57;;;;;;;11.50;100.00;101953.16;1034472;28;20886;-47
2023/06/07 01:58:12;;;;;;;9.52;7.13;;;;;;;11.44;100.00;101949.44;1027462;28;20425;-46
2023/06/07 01:59:12;;;;;;;13.70;7.38;;;;;;;11.43;100.00;101953.13;1036601;28;20396;-45
2023/06/07 02:00:05;;;;;;;15.45;7.43;;;;;;;11.46;100.00;101953.56;1040307;28;20698;-49
2023/06/07 02:01:04;;;;;;;16.55;6.55;;;;;;;11.42;100.00;101949.63;1047526;28;20294;-50
2023/06/07 02:01:54;;;;;;;15.63;6.45;;;;;;;11.43;100.00;101953.94;1045641;28;20387;-49
2023/06/07 02:02:44;;;;;;;13.75;5.65;;;;;;;11.39;100.00;101947.34;1039915;28;20311;-50
2023/06/07 02:03:24;;;;;;;16.80;7.13;;;;;;;11.41;100.00;101942.66;1035203;28;20323;-49
2023/06/07 02:03:59;;;;;;;14.40;6.65;;;;;;;11.36;100.00;101945.09;1031339;28;20592;-50
2023/06/07 02:04:32;;;;;;;11.30;6.72;;;;;;;11.45;100.00;101946.56;1027375;28;20050;-46
2023/06/07 02:05:09;;;;;;;11.07;6.57;;;;;;;11.45;100.00;101935.91;1032109;28;20883;-47
2023/06/07 02:05:48;;;;;;;16.40;7.68;;;;;;;11.38;100.00;101948.38;1033957;28;20408;-55
2023/06/07 02:06:32;;;;;;;13.55;5.78;;;;;;;11.40;100.00;101942.84;1038000;28;20336;-56
2023/06/07 02:07:05;;;;;;;12.73;6.90;;;;;;;11.39;100.00;101941.19;1031715;28;20308;-55
2023/06/07 02:07:43;;;;;;;13.43;7.22;;;;;;;11.40;100.00;101941.00;1031098;28;20312;-56
2023/06/07 02:08:29;;;;;;;13.15;6.78;;;;;;;11.41;100.00;101939.97;1030613;28;20293;-54
2023/06/07 02:09:06;;;;;;;11.88;7.05;;;;;;;11.42;100.00;101946.97;1034684;28;20308;-55
2023/06/07 02:09:39;;;;;;;13.43;7.07;;;;;;;11.48;100.00;101940.03;1035721;28;20293;-55
2023/06/07 02:10:13;;;;;;;15.82;8.80;;;;;;;11.45;100.00;101943.91;1038826;28;20308;-56
2023/06/07 02:10:46;;;;;;;10.50;7.82;;;;;;;11.46;100.00;101936.72;1040595;28;20303;-56
2023/06/07 02:11:18;;;;;;;18.95;8.00;;;;;;;11.43;100.00;101948.63;1043280;28;20307;-55
2023/06/07 02:11:50;;;;;;;12.98;7.55;;;;;;;11.44;100.00;101946.78;1040803;28;20308;-56
2023/06/07 02:12:25;;;;;;;9.10;6.53;;;;;;;11.44;100.00;101942.25;1041790;28;20296;-54
2023/06/07 02:12:57;;;;;;;15.43;9.20;;;;;;;11.42;100.00;101938.97;1039294;28;20390;-55
2023/06/07 02:13:34;;;;;;;14.32;7.28;;;;;;;11.46;100.00;101942.88;1036175;28;20414;-56
2023/06/07 02:14:07;;;;;;;19.38;8.55;;;;;;;11.50;100.00;101945.16;1031232;28;20324;-56
2023/06/07 02:14:39;;;;;;;8.55;6.18;;;;;;;11.36;100.00;101953.09;1027506;28;20823;-54
2023/06/07 02:15:10;;;;;;;17.75;7.85;;;;;;;11.44;100.00;101944.94;1030107;28;20724;-56
2023/06/07 02:15:45;;;;;;;13.65;6.50;;;;;;;11.43;100.00;101951.28;1032451;28;20411;-55
2023/06/07 02:16:39;;;;;;;13.95;7.30;;;;;;;11.37;100.00;101949.41;1040312;28;21017;-55
2023/06/07 02:17:13;;;;;;;14.15;7.07;;;;;;;11.32;100.00;101941.16;1040077;28;20845;-56
2023/06/07 02:17:57;;;;;;;10.73;6.95;;;;;;;11.24;100.00;101941.31;1040503;28;20304;-56
2023/06/07 02:18:30;;;;;;;10.88;6.82;;;;;;;11.33;100.00;101950.81;1040162;28;20377;-55
2023/06/07 02:19:11;;;;;;;13.95;7.47;;;;;;;11.39;100.00;101950.03;1042733;28;20737;-47
2023/06/07 02:19:55;;;;;;;10.88;6.95;;;;;;;11.35;100.00;101943.44;1043648;28;20417;-45
2023/06/07 02:20:28;;;;;;;9.45;6.72;;;;;;;11.41;100.00;101939.97;1043542;28;20337;-45
2023/06/07 02:21:00;;;;;;;18.25;7.22;;;;;;;11.45;100.00;101943.91;1043936;28;20317;-47
2023/06/07 02:21:32;;;;;;;15.25;7.55;;;;;;;11.42;100.00;101941.63;1043863;28;20812;-50
2023/06/07 02:22:06;;;;;;;11.20;7.50;;;;;;;11.41;100.00;101950.66;1043910;28;20801;-43
2023/06/07 02:22:38;;;;;;;15.88;7.90;;;;;;;11.44;100.00;101944.94;1039456;28;20331;-48
2023/06/07 02:23:09;;;;;;;12.05;7.03;;;;;;;11.43;100.00;101942.47;1039433;28;20304;-46
2023/06/07 02:23:41;;;;;;;13.95;7.38;;;;;;;11.43;100.00;101945.13;1036028;28;20315;-48
2023/06/07 02:24:13;;;;;;;11.63;6.85;;;;;;;11.41;100.00;101945.31;1039771;28;20304;-48
2023/06/07 02:24:46;;;;;;;12.48;8.05;;;;;;;11.39;100.00;101942.03;1039985;28;20351;-46
2023/06/07 02:25:18;;;;;;;15.90;7.70;;;;;;;11.37;100.00;101946.72;1040262;28;20296;-48
2023/06/07 02:25:52;;;;;;;11.70;7.15;;;;;;;11.37;100.00;101944.06;1039555;28;20398;-48
2023/06/07 02:26:25;;;;;;;15.13;7.05;;;;;;;11.42;100.00;101940.81;1040568;28;20351;-49
2023/06/07 02:26:57;;;;;;;14.13;6.95;;;;;;;11.30;100.00;101940.53;1044502;28;20292;-51
2023/06/07 02:27:29;;;;;;;17.33;8.48;;;;;;;11.27;100.00;101938.25;1044124;28;20295;-55
2023/06/07 02:28:01;;;;;;;13.68;6.78;;;;;;;11.21;100.00;101941.66;1044254;28;20295;-55
2023/06/07 02:28:33;;;;;;;11.15;6.57;;;;;;;11.27;100.00;101948.91;1044230;28;20303;-55
2023/06/07 02:29:05;;;;;;;11.90;7.63;;;;;;;11.33;100.00;101942.81;1044193;28;20298;-55
2023/06/07 02:29:36;;;;;;;9.93;7.55;;;;;;;11.35;100.00;101951.44;1043995;28;20681;-54
2023/06/07 02:30:08;;;;;;;16.08;7.10;;;;;;;11.32;100.00;101951.00;1044125;28;20295;-55
2023/06/07 02:30:40;;;;;;;13.32;8.70;;;;;;;11.29;100.00;101946.88;1044158;28;20776;-55
2023/06/07 02:31:12;;;;;;;13.18;7.55;;;;;;;11.29;100.00;101949.56;1043784;28;20421;-55
2023/06/07 02:31:43;;;;;;;19.80;7.93;;;;;;;11.26;100.00;101952.59;1043418;28;20372;-56
2023/06/07 02:32:15;;;;;;;13.55;7.82;;;;;;;11.28;100.00;101950.56;1043521;28;20382;-56
2023/06/07 02:32:49;;;;;;;16.17;8.10;;;;;;;11.22;100.00;101948.66;1042955;28;20310;-56
2023/06/07 02:33:24;;;;;;;10.80;6.82;;;;;;;11.15;100.00;101943.28;1043636;28;20295;-55
2023/06/07 02:33:58;;;;;;;17.70;7.18;;;;;;;11.11;100.00;101951.84;1044055;28;20307;-55